Time;durP1;ratioP1;P1;durP2;ratioP2;P2;SDS_P1;SDS_P2;PMS_P1;PMS_P2;Temp;Humidity;BMP_temperature;BMP_pressure;BME280_temperature;BME280_humidity;BME280_pressure;Samples;Min_cycle;Max_cycle;Signal;HPM_P1;HPM_P2
2023/07/13 00:01:06;;;;;;;31.13;5.63;;;27.50;46.10;;;;;;5046771;28;20203;-66
2023/07/13 00:03:34;;;;;;;42.40;6.87;;;27.50;46.10;;;;;;5031355;28;20668;-66
2023/07/13 00:06:03;;;;;;;32.97;6.70;;;27.50;46.10;;;;;;5047618;28;20741;-66
2023/07/13 00:08:32;;;;;;;23.27;5.23;;;27.50;46.20;;;;;;5045833;28;20208;-67
2023/07/13 00:10:59;;;;;;;34.47;6.17;;;27.50;46.20;;;;;;5036644;28;20196;-67
2023/07/13 00:13:26;;;;;;;31.93;6.27;;;27.50;46.20;;;;;;5037961;28;20206;-67
2023/07/13 00:15:53;;;;;;;25.20;5.47;;;27.50;46.30;;;;;;5047673;28;20242;-69
2023/07/13 00:18:20;;;;;;;28.60;6.17;;;27.40;46.20;;;;;;5042716;28;20208;-72
2023/07/13 00:20:47;;;;;;;31.13;6.50;;;27.50;46.30;;;;;;5035238;28;20539;-70
2023/07/13 00:23:16;;;;;;;31.10;5.53;;;27.40;46.30;;;;;;5042433;28;20995;-68
2023/07/13 00:25:43;;;;;;;22.90;5.43;;;27.40;46.30;;;;;;5041247;28;20208;-69
2023/07/13 00:28:10;;;;;;;25.93;6.33;;;27.40;46.30;;;;;;5033365;28;20664;-72
2023/07/13 00:30:37;;;;;;;62.07;8.93;;;27.40;46.30;;;;;;5038351;28;20207;-68
2023/07/13 00:33:04;;;;;;;24.23;5.60;;;27.40;46.30;;;;;;5045530;28;20199;-74
2023/07/13 00:35:31;;;;;;;30.57;6.50;;;27.40;46.30;;;;;;5031281;28;20302;-74
2023/07/13 00:37:58;;;;;;;31.43;6.07;;;27.40;46.30;;;;;;5027527;28;20232;-74
2023/07/13 00:40:27;;;;;;;35.33;6.40;;;27.30;46.40;;;;;;5029044;28;20197;-73
2023/07/13 00:42:54;;;;;;;37.10;6.77;;;27.30;46.40;;;;;;5043414;28;20208;-72
2023/07/13 00:45:58;;;;;;;29.23;5.60;;;27.30;46.40;;;;;;5040337;28;20258;-68
2023/07/13 00:48:30;;;;;;;37.80;6.77;;;27.40;46.60;;;;;;5033722;28;20206;-74
2023/07/13 00:51:01;;;;;;;49.40;8.17;;;27.30;46.40;;;;;;5063641;28;20642;-71
2023/07/13 00:53:29;;;;;;;33.07;6.43;;;27.30;46.40;;;;;;5027266;28;20649;-70
2023/07/13 00:55:58;;;;;;;23.43;5.70;;;27.30;46.50;;;;;;5039030;28;20244;-74
2023/07/13 00:58:26;;;;;;;50.10;7.47;;;27.30;46.60;;;;;;5031422;28;20201;-76
2023/07/13 01:00:54;;;;;;;47.93;7.73;;;27.30;46.60;;;;;;5028641;28;20201;-77
2023/07/13 01:03:21;;;;;;;31.80;6.40;;;27.30;46.60;;;;;;5039149;28;20205;-74
2023/07/13 01:05:50;;;;;;;26.07;5.43;;;27.30;46.60;;;;;;5033885;28;20681;-71
2023/07/13 01:08:17;;;;;;;28.53;5.97;;;27.20;46.50;;;;;;5032753;28;20209;-74
2023/07/13 01:10:52;;;;;;;28.03;5.47;;;27.20;46.50;;;;;;5047200;28;20192;-74
2023/07/13 01:13:21;;;;;;;36.20;7.00;;;27.20;46.60;;;;;;5037092;28;20719;-71
2023/07/13 01:15:50;;;;;;;32.37;6.53;;;27.20;46.60;;;;;;5039408;28;20235;-69
2023/07/13 01:18:19;;;;;;;25.17;6.00;;;27.30;46.70;;;;;;5033668;28;20236;-73
2023/07/13 01:20:55;;;;;;;32.53;6.33;;;27.20;46.60;;;;;;5043344;28;20199;-68
2023/07/13 01:23:23;;;;;;;24.50;5.97;;;27.20;46.70;;;;;;5027999;28;20218;-69
2023/07/13 01:25:49;;;;;;;30.63;6.30;;;27.20;46.70;;;;;;5026862;28;20654;-70
2023/07/13 01:28:16;;;;;;;33.17;6.47;;;27.20;46.70;;;;;;5026744;28;20205;-68
2023/07/13 01:30:45;;;;;;;44.67;8.00;;;27.20;46.70;;;;;;5026655;28;20653;-68
2023/07/13 01:33:13;;;;;;;22.80;5.47;;;27.20;46.80;;;;;;5036613;28;20196;-68
2023/07/13 01:35:41;;;;;;;38.37;6.57;;;27.20;46.80;;;;;;5038786;28;20239;-68
2023/07/13 01:38:10;;;;;;;29.97;6.10;;;27.10;46.70;;;;;;5035266;28;20232;-68
2023/07/13 01:40:38;;;;;;;38.33;7.33;;;27.10;46.80;;;;;;5036925;28;20208;-67
2023/07/13 01:43:05;;;;;;;34.37;6.80;;;27.10;46.80;;;;;;5051559;28;20326;-69
2023/07/13 01:45:33;;;;;;;28.80;6.83;;;27.10;46.80;;;;;;5056677;28;20211;-67
2023/07/13 01:48:00;;;;;;;26.10;5.80;;;27.10;46.90;;;;;;5045883;28;20204;-68
2023/07/13 01:50:28;;;;;;;31.43;6.20;;;27.10;46.90;;;;;;5043351;28;20208;-68
2023/07/13 01:52:55;;;;;;;33.90;6.47;;;27.10;46.90;;;;;;5049191;28;20200;-77
2023/07/13 01:55:23;;;;;;;27.00;6.53;;;27.10;46.90;;;;;;5049773;28;20227;-73
2023/07/13 01:57:50;;;;;;;30.10;6.23;;;27.10;47.00;;;;;;5051050;28;20671;-77
2023/07/13 02:00:18;;;;;;;27.63;6.13;;;27.10;47.00;;;;;;5051082;28;20207;-68
2023/07/13 02:02:45;;;;;;;38.40;7.33;;;27.00;46.90;;;;;;5047471;28;20212;-74
2023/07/13 02:05:13;;;;;;;30.77;6.00;;;27.00;47.00;;;;;;5038794;28;20953;-67
2023/07/13 02:07:40;;;;;;;38.87;7.07;;;27.10;47.10;;;;;;5035507;28;20288;-67
2023/07/13 02:10:09;;;;;;;33.73;6.77;;;27.00;47.10;;;;;;5030568;28;20200;-67
2023/07/13 02:12:38;;;;;;;34.37;6.73;;;27.00;47.10;;;;;;5031136;28;20213;-67
2023/07/13 02:15:06;;;;;;;21.37;5.43;;;27.00;47.70;;;;;;5034325;28;20234;-67
2023/07/13 02:17:33;;;;;;;42.10;6.93;;;27.00;47.10;;;;;;5048973;28;20209;-68
2023/07/13 02:19:59;;;;;;;43.80;7.63;;;27.00;47.10;;;;;;5049559;28;20200;-68
2023/07/13 02:22:26;;;;;;;27.83;6.13;;;27.00;47.20;;;;;;5030722;28;20216;-71
2023/07/13 02:24:53;;;;;;;31.63;6.63;;;27.00;47.30;;;;;;5030804;28;20569;-70
2023/07/13 02:27:20;;;;;;;26.23;6.33;;;27.00;47.30;;;;;;5031218;28;20200;-68
2023/07/13 02:29:51;;;;;;;51.30;8.13;;;27.00;47.30;;;;;;5038997;28;20193;-70
2023/07/13 02:32:18;;;;;;;29.30;6.73;;;27.00;47.30;;;;;;5033525;28;20204;-67
2023/07/13 02:34:46;;;;;;;31.83;7.00;;;26.90;47.30;;;;;;5036752;28;20201;-73
2023/07/13 02:37:12;;;;;;;39.90;7.27;;;26.90;47.30;;;;;;5046645;28;20219;-69
2023/07/13 02:39:39;;;;;;;29.77;6.17;;;26.90;47.30;;;;;;5039008;28;20209;-69
2023/07/13 02:42:07;;;;;;;22.60;5.50;;;26.90;47.30;;;;;;5045848;28;20204;-72
2023/07/13 02:44:34;;;;;;;33.80;6.37;;;26.90;47.30;;;;;;5049977;28;20210;-71
2023/07/13 02:47:02;;;;;;;28.50;6.57;;;27.00;47.30;;;;;;5041544;28;20285;-68
2023/07/13 02:49:29;;;;;;;31.07;6.40;;;26.90;47.90;;;;;;5045826;28;20892;-67
2023/07/13 02:51:56;;;;;;;29.30;6.23;;;26.90;47.30;;;;;;5035406;28;20208;-68
2023/07/13 02:54:23;;;;;;;31.87;6.37;;;26.90;47.30;;;;;;5033160;28;20198;-68
2023/07/13 02:56:50;;;;;;;30.40;6.47;;;26.90;47.60;;;;;;5035984;28;20228;-68
2023/07/13 02:59:17;;;;;;;41.40;7.73;;;26.90;47.30;;;;;;5064092;28;20300;-68
2023/07/13 03:01:43;;;;;;;34.07;7.07;;;26.90;47.40;;;;;;5037036;28;20216;-67
2023/07/13 03:04:12;;;;;;;29.90;6.40;;;26.90;47.30;;;;;;5029272;28;20287;-67
2023/07/13 03:06:39;;;;;;;26.93;5.80;;;26.80;47.40;;;;;;5029078;28;20298;-68
2023/07/13 03:09:06;;;;;;;32.43;6.97;;;26.90;47.50;;;;;;5047132;28;20684;-74
2023/07/13 03:11:33;;;;;;;32.07;6.50;;;26.80;47.50;;;;;;5041272;28;20196;-68
2023/07/13 03:14:00;;;;;;;30.50;6.10;;;26.80;47.50;;;;;;5048754;28;20208;-68
2023/07/13 03:16:27;;;;;;;33.80;7.37;;;26.80;47.50;;;;;;5047304;28;20709;-70
2023/07/13 03:18:53;;;;;;;35.20;6.53;;;26.80;47.60;;;;;;5036933;28;20197;-67
2023/07/13 03:21:22;;;;;;;39.77;7.57;;;26.80;48.20;;;;;;5042225;28;20856;-76
2023/07/13 03:23:49;;;;;;;24.57;5.87;;;26.80;47.60;;;;;;5029566;28;20212;-69
2023/07/13 03:26:18;;;;;;;36.13;7.27;;;26.80;47.70;;;;;;5029262;28;20192;-77
2023/07/13 03:28:46;;;;;;;30.13;6.30;;;26.80;47.70;;;;;;5029692;28;20205;-76
2023/07/13 03:31:15;;;;;;;49.10;7.53;;;26.80;47.70;;;;;;5030780;28;20287;-74
2023/07/13 03:33:42;;;;;;;30.60;6.47;;;26.80;47.80;;;;;;5047565;28;20226;-72
2023/07/13 03:36:18;;;;;;;28.50;6.70;;;26.80;47.80;;;;;;5048699;28;20232;-67
2023/07/13 03:38:47;;;;;;;34.27;7.27;;;26.80;47.90;;;;;;5043911;28;20729;-67
2023/07/13 03:41:15;;;;;;;36.60;6.97;;;26.80;47.90;;;;;;5035486;28;20603;-68
2023/07/13 03:43:42;;;;;;;32.63;6.77;;;26.80;47.90;;;;;;5054706;28;20207;-73
2023/07/13 03:46:09;;;;;;;26.77;6.33;;;26.70;47.90;;;;;;5068975;28;20191;-77
2023/07/13 03:48:36;;;;;;;26.30;6.00;;;26.70;47.80;;;;;;5047068;28;20215;-71
2023/07/13 03:51:03;;;;;;;30.33;6.33;;;26.70;47.80;;;;;;5048906;28;20196;-70
2023/07/13 03:53:30;;;;;;;29.83;6.60;;;26.70;47.80;;;;;;5029784;28;20695;-68
2023/07/13 03:55:59;;;;;;;32.70;6.50;;;26.70;47.90;;;;;;5033663;28;20694;-69
2023/07/13 03:58:31;;;;;;;42.10;7.27;;;26.70;47.90;;;;;;5048590;28;20289;-68
2023/07/13 04:00:59;;;;;;;33.97;6.60;;;26.80;48.00;;;;;;5048823;28;20298;-68
2023/07/13 04:03:28;;;;;;;31.30;6.67;;;26.60;47.90;;;;;;5039733;28;20234;-71
2023/07/13 04:05:59;;;;;;;36.43;6.90;;;26.70;47.90;;;;;;5038050;28;20291;-68
2023/07/13 04:08:27;;;;;;;26.57;5.83;;;26.60;47.90;;;;;;5047804;28;20201;-69
2023/07/13 04:10:54;;;;;;;24.87;5.80;;;26.70;48.00;;;;;;5047553;28;20963;-69
2023/07/13 04:13:22;;;;;;;32.60;6.57;;;26.60;47.90;;;;;;5044906;28;20659;-69
2023/07/13 04:15:49;;;;;;;29.63;6.47;;;26.60;48.00;;;;;;5038551;28;20798;-71
2023/07/13 04:18:16;;;;;;;31.87;7.03;;;26.60;48.00;;;;;;5048505;28;20747;-68
2023/07/13 04:20:43;;;;;;;26.27;6.70;;;26.60;48.00;;;;;;5045318;28;20192;-69
2023/07/13 04:23:10;;;;;;;28.23;5.90;;;26.60;48.00;;;;;;5047675;28;20200;-74
2023/07/13 04:25:37;;;;;;;36.97;7.00;;;26.60;48.00;;;;;;5039760;28;20214;-71
2023/07/13 04:28:05;;;;;;;29.47;7.10;;;26.60;48.00;;;;;;5033733;28;20200;-69
2023/07/13 04:30:33;;;;;;;36.57;7.23;;;26.60;48.00;;;;;;5060240;28;20230;-72
2023/07/13 04:33:00;;;;;;;28.93;6.40;;;26.60;48.10;;;;;;5037163;28;20208;-73
2023/07/13 04:35:27;;;;;;;32.40;6.70;;;26.60;48.80;;;;;;5046935;28;20667;-71
2023/07/13 04:37:53;;;;;;;40.80;6.80;;;26.60;48.20;;;;;;5042974;28;20234;-73
2023/07/13 04:40:21;;;;;;;48.43;8.00;;;26.60;48.20;;;;;;5032345;28;20207;-69
2023/07/13 04:42:48;;;;;;;43.00;7.53;;;26.60;48.20;;;;;;5037219;28;20208;-67
2023/07/13 04:45:17;;;;;;;34.03;7.13;;;26.60;48.20;;;;;;5033474;28;20211;-67
2023/07/13 04:47:45;;;;;;;35.10;7.30;;;26.60;48.20;;;;;;5045360;28;20472;-68
2023/07/13 04:50:15;;;;;;;34.30;7.47;;;26.50;49.00;;;;;;5041676;28;20192;-65
2023/07/13 04:52:42;;;;;;;32.53;7.23;;;26.50;48.80;;;;;;5027787;28;20203;-66
2023/07/13 04:55:09;;;;;;;31.37;6.70;;;26.50;48.60;;;;;;5032556;28;20243;-68
2023/07/13 04:57:36;;;;;;;42.30;7.47;;;26.50;48.50;;;;;;5027232;28;20705;-66
2023/07/13 05:00:06;;;;;;;31.77;7.10;;;26.50;48.50;;;;;;5031366;28;20202;-68
2023/07/13 05:02:34;;;;;;;46.50;8.40;;;26.60;48.40;;;;;;5030697;28;20212;-65
2023/07/13 05:05:03;;;;;;;26.67;6.07;;;26.60;48.40;;;;;;5027105;28;20208;-68
2023/07/13 05:07:32;;;;;;;32.37;7.07;;;26.60;48.50;;;;;;5028118;28;20208;-67
2023/07/13 05:09:59;;;;;;;52.43;8.47;;;26.60;48.50;;;;;;5034302;28;20248;-68
2023/07/13 05:12:26;;;;;;;31.23;6.40;;;26.60;48.60;;;;;;5039926;28;20197;-69
2023/07/13 05:14:53;;;;;;;43.13;7.33;;;26.60;48.60;;;;;;5036676;28;20203;-68
2023/07/13 05:17:20;;;;;;;18.07;5.40;;;26.60;48.40;;;;;;5026699;28;20239;-68
2023/07/13 05:19:47;;;;;;;52.47;8.30;;;26.60;48.40;;;;;;5038789;28;20208;-68
2023/07/13 05:22:15;;;;;;;47.80;8.43;;;26.60;48.40;;;;;;5037481;28;20211;-67
2023/07/13 05:24:42;;;;;;;51.07;7.97;;;26.60;48.40;;;;;;5036135;28;20196;-67
2023/07/13 05:27:09;;;;;;;25.53;5.83;;;26.60;48.40;;;;;;5031016;28;20701;-68
2023/07/13 05:29:36;;;;;;;33.70;7.23;;;26.60;48.40;;;;;;5036224;28;21628;-71
2023/07/13 05:32:03;;;;;;;43.40;7.73;;;26.60;48.40;;;;;;5031053;28;20209;-73
2023/07/13 05:34:30;;;;;;;25.97;6.10;;;26.60;48.40;;;;;;5041556;28;20258;-67
2023/07/13 05:36:57;;;;;;;50.07;8.10;;;26.60;48.50;;;;;;5030977;28;20581;-68
2023/07/13 05:39:26;;;;;;;25.40;6.00;;;26.60;48.40;;;;;;5041387;28;20200;-67
2023/07/13 05:41:53;;;;;;;23.83;6.10;;;26.60;48.50;;;;;;5051790;28;20204;-69
2023/07/13 05:44:20;;;;;;;37.47;7.13;;;26.60;48.50;;;;;;5048665;28;20204;-68
2023/07/13 05:46:47;;;;;;;51.10;8.27;;;26.60;48.60;;;;;;5034145;28;20743;-65
2023/07/13 05:49:13;;;;;;;30.23;6.47;;;26.60;48.60;;;;;;5047306;28;20207;-66
2023/07/13 05:51:40;;;;;;;28.37;6.57;;;26.60;48.60;;;;;;5050838;28;20210;-68
2023/07/13 05:54:07;;;;;;;29.07;6.27;;;26.60;48.60;;;;;;5048418;28;20205;-66
2023/07/13 05:56:35;;;;;;;30.10;6.37;;;26.60;48.70;;;;;;5056201;28;20218;-67
2023/07/13 05:59:02;;;;;;;25.20;5.60;;;26.70;48.70;;;;;;5048942;28;20775;-66
2023/07/13 06:01:31;;;;;;;28.07;6.10;;;26.60;48.70;;;;;;5050872;28;20200;-66
2023/07/13 06:03:58;;;;;;;26.77;6.23;;;26.70;48.90;;;;;;5051055;28;20301;-69
2023/07/13 06:06:25;;;;;;;33.60;6.63;;;26.70;48.90;;;;;;5030537;28;20311;-75
2023/07/13 06:08:52;;;;;;;38.20;6.83;;;26.70;48.90;;;;;;5041375;28;20204;-66
2023/07/13 06:11:21;;;;;;;20.83;5.10;;;26.70;48.90;;;;;;5047816;28;20208;-79
2023/07/13 06:13:49;;;;;;;34.53;7.13;;;26.80;49.00;;;;;;5049961;28;20196;-70
2023/07/13 06:16:17;;;;;;;34.60;6.93;;;26.80;49.10;;;;;;5050600;28;20228;-73
2023/07/13 06:18:44;;;;;;;31.83;6.57;;;26.80;49.10;;;;;;5045634;28;20747;-74
2023/07/13 06:21:14;;;;;;;34.20;7.00;;;26.80;49.10;;;;;;5058486;28;20196;-66
2023/07/13 06:23:41;;;;;;;31.70;6.90;;;26.80;49.10;;;;;;5050590;28;20734;-70
2023/07/13 06:26:09;;;;;;;20.53;5.87;;;26.90;49.20;;;;;;5045548;28;20249;-67
2023/07/13 06:28:36;;;;;;;26.03;6.07;;;26.80;49.20;;;;;;5056335;28;20204;-66
2023/07/13 06:31:06;;;;;;;44.87;7.97;;;26.90;49.30;;;;;;5042781;28;20201;-70
2023/07/13 06:33:33;;;;;;;40.77;7.63;;;26.90;49.30;;;;;;5043419;28;20210;-67
2023/07/13 06:36:00;;;;;;;30.43;6.47;;;26.90;49.30;;;;;;5034200;28;20205;-75
2023/07/13 06:38:27;;;;;;;29.10;6.07;;;26.90;49.30;;;;;;5036993;28;20235;-74
2023/07/13 06:40:53;;;;;;;36.03;6.93;;;27.00;49.30;;;;;;5033713;28;20208;-69
2023/07/13 06:43:21;;;;;;;31.20;6.70;;;27.00;49.30;;;;;;5047722;28;20203;-66
2023/07/13 06:45:49;;;;;;;28.40;6.20;;;27.00;49.30;;;;;;5044298;28;20646;-73
2023/07/13 06:48:19;;;;;;;32.37;6.40;;;27.00;49.30;;;;;;5030682;28;20208;-68
2023/07/13 06:50:47;;;;;;;34.77;6.07;;;27.00;49.40;;;;;;5029900;28;20204;-69
2023/07/13 06:53:14;;;;;;;29.10;6.20;;;27.10;49.40;;;;;;5029753;28;20189;-68
2023/07/13 06:55:41;;;;;;;32.67;6.30;;;27.10;49.40;;;;;;5030760;28;20216;-72
2023/07/13 06:58:08;;;;;;;46.93;7.67;;;27.10;49.40;;;;;;5038871;28;20232;-69
2023/07/13 07:00:35;;;;;;;30.03;6.57;;;27.10;49.50;;;;;;5033378;28;20665;-70
2023/07/13 07:03:01;;;;;;;29.67;6.03;;;27.10;49.50;;;;;;5042877;28;20204;-68
2023/07/13 07:05:30;;;;;;;28.43;5.87;;;27.20;49.50;;;;;;5036021;28;20207;-69
2023/07/13 07:07:57;;;;;;;30.93;6.37;;;27.20;49.50;;;;;;5049293;28;20204;-68
2023/07/13 07:10:24;;;;;;;28.70;5.73;;;27.20;49.40;;;;;;5028767;28;20201;-76
2023/07/13 07:12:51;;;;;;;34.33;6.57;;;27.20;49.40;;;;;;5049423;28;20204;-83
2023/07/13 07:15:18;;;;;;;21.33;5.20;;;27.20;49.40;;;;;;5049184;28;20629;-75
2023/07/13 07:17:46;;;;;;;33.57;6.37;;;27.30;49.50;;;;;;5042147;28;20216;-76
2023/07/13 07:20:13;;;;;;;23.63;5.60;;;27.30;49.40;;;;;;5037615;28;20203;-75
2023/07/13 07:22:41;;;;;;;24.83;5.83;;;27.30;49.50;;;;;;5028976;28;20244;-88
2023/07/13 07:25:08;;;;;;;25.90;5.53;;;27.30;49.40;;;;;;5042989;28;20228;-78
2023/07/13 07:27:35;;;;;;;25.40;5.40;;;27.30;49.30;;;;;;5049771;28;20609;-77
2023/07/13 07:30:02;;;;;;;27.37;5.43;;;27.30;49.30;;;;;;5038007;28;20204;-77
2023/07/13 07:32:31;;;;;;;23.30;5.40;;;27.40;49.40;;;;;;5032576;28;20210;-81
2023/07/13 07:34:58;;;;;;;27.87;5.60;;;27.40;49.30;;;;;;5038149;28;20227;-85
2023/07/13 07:37:25;;;;;;;33.70;5.93;;;27.40;49.30;;;;;;5048976;28;20234;-80
2023/07/13 07:39:53;;;;;;;23.60;5.47;;;27.40;49.30;;;;;;5033709;28;20193;-79
2023/07/13 07:42:20;;;;;;;23.03;5.10;;;27.40;49.40;;;;;;5029424;28;20247;-85
2023/07/13 07:44:47;;;;;;;26.63;5.70;;;27.50;49.40;;;;;;5029225;28;20578;-73
2023/07/13 07:47:15;;;;;;;21.00;5.57;;;27.40;49.30;;;;;;5040063;28;20211;-82
2023/07/13 07:49:41;;;;;;;24.87;5.60;;;27.50;49.40;;;;;;5050244;28;20627;-71
2023/07/13 07:52:09;;;;;;;29.00;5.97;;;27.50;49.40;;;;;;5032991;28;20189;-75
2023/07/13 07:54:36;;;;;;;31.67;6.13;;;27.50;49.40;;;;;;5029471;28;20672;-78
2023/07/13 07:57:04;;;;;;;27.43;5.97;;;27.60;50.10;;;;;;5058707;28;20242;-73
2023/07/13 07:59:31;;;;;;;21.23;5.07;;;27.60;49.50;;;;;;5069157;28;20210;-70
2023/07/13 08:01:58;;;;;;;43.47;7.43;;;27.60;49.40;;;;;;5068890;28;20196;-73
2023/07/13 08:04:25;;;;;;;29.87;5.93;;;27.60;49.40;;;;;;5044773;28;20205;-69
2023/07/13 08:06:51;;;;;;;30.87;6.27;;;27.70;49.50;;;;;;5033852;28;20200;-85
2023/07/13 08:09:18;;;;;;;25.10;5.80;;;27.70;49.50;;;;;;5038554;28;20266;-69
2023/07/13 08:11:45;;;;;;;29.40;6.03;;;27.70;49.50;;;;;;5049340;28;20195;-78
2023/07/13 08:14:13;;;;;;;27.00;5.80;;;27.70;49.50;;;;;;5036237;28;20205;-69
2023/07/13 08:16:40;;;;;;;25.43;5.77;;;27.70;49.40;;;;;;5043061;28;20242;-69
2023/07/13 08:19:07;;;;;;;25.93;5.97;;;27.80;49.50;;;;;;5037594;28;20212;-69
2023/07/13 08:21:34;;;;;;;22.73;5.37;;;27.80;49.50;;;;;;5028998;28;20642;-69
2023/07/13 08:24:01;;;;;;;26.43;5.70;;;27.70;49.50;;;;;;5028923;28;20205;-73
2023/07/13 08:26:28;;;;;;;34.43;6.40;;;27.80;49.50;;;;;;5036176;28;20676;-69
2023/07/13 08:28:54;;;;;;;25.83;5.90;;;27.80;49.40;;;;;;5031155;28;20204;-70
2023/07/13 08:31:23;;;;;;;31.43;5.87;;;27.80;49.40;;;;;;5037202;28;20196;-68
2023/07/13 08:33:50;;;;;;;27.43;5.93;;;27.80;49.40;;;;;;5033724;28;20542;-71
2023/07/13 08:36:16;;;;;;;29.00;6.00;;;27.80;49.40;;;;;;5035235;28;20867;-70
2023/07/13 08:38:43;;;;;;;23.13;5.40;;;27.90;49.40;;;;;;5039334;28;20212;-84
2023/07/13 08:41:17;;;;;;;22.07;5.43;;;27.90;49.50;;;;;;5048273;28;20216;-75
2023/07/13 08:43:49;;;;;;;35.33;6.20;;;27.90;49.50;;;;;;5039729;28;20200;-77
2023/07/13 08:46:22;;;;;;;24.77;5.20;;;27.90;50.10;;;;;;5028376;28;20208;-73
2023/07/13 08:48:53;;;;;;;33.90;6.07;;;27.90;49.50;;;;;;5028457;28;20248;-67
2023/07/13 08:51:29;;;;;;;28.10;5.90;;;27.90;50.20;;;;;;5029364;28;20193;-70
2023/07/13 08:54:00;;;;;;;29.50;5.67;;;27.90;49.60;;;;;;5030634;28;20196;-75
2023/07/13 08:56:30;;;;;;;23.57;5.53;;;28.00;49.70;;;;;;5037838;28;20203;-76
2023/07/13 08:58:58;;;;;;;27.20;5.57;;;28.00;49.70;;;;;;5048287;28;20228;-82
2023/07/13 09:01:32;;;;;;;21.60;5.10;;;28.00;49.60;;;;;;5046448;28;20210;-77
2023/07/13 09:04:06;;;;;;;32.00;6.30;;;28.00;49.70;;;;;;5039203;28;20201;-78
2023/07/13 09:06:52;;;;;;;23.83;5.60;;;28.00;49.70;;;;;;5033909;28;20721;-82
2023/07/13 09:09:32;;;;;;;27.63;5.87;;;28.00;49.50;;;;;;5028187;28;20245;-86
2023/07/13 09:12:08;;;;;;;20.33;5.47;;;28.00;49.50;;;;;;5040726;28;20607;-67
2023/07/13 09:14:42;;;;;;;24.10;5.33;;;28.10;49.60;;;;;;5041016;28;20196;-74
2023/07/13 09:17:17;;;;;;;21.00;5.10;;;28.10;49.60;;;;;;5040100;28;20235;-70
2023/07/13 09:19:51;;;;;;;40.03;6.67;;;28.10;49.50;;;;;;5043894;28;20223;-67
2023/07/13 09:22:21;;;;;;;66.93;9.07;;;28.20;49.60;;;;;;5031482;28;20204;-69
2023/07/13 09:24:58;;;;;;;45.10;7.30;;;28.20;49.40;;;;;;5032361;28;20571;-68
2023/07/13 09:27:31;;;;;;;31.77;5.93;;;28.20;49.40;;;;;;5042958;28;20220;-71
2023/07/13 09:30:05;;;;;;;32.30;5.97;;;28.20;49.50;;;;;;5045813;28;20204;-72
2023/07/13 09:32:33;;;;;;;40.97;6.80;;;28.10;49.30;;;;;;5037934;28;20204;-67
2023/07/13 09:35:03;;;;;;;29.43;5.67;;;28.20;49.40;;;;;;5039444;28;20759;-70
2023/07/13 09:37:33;;;;;;;22.73;5.43;;;28.10;49.40;;;;;;5036759;28;20235;-67
2023/07/13 09:40:04;;;;;;;29.87;6.20;;;28.10;49.40;;;;;;5027777;28;20596;-66
2023/07/13 09:42:32;;;;;;;53.23;8.33;;;28.20;49.50;;;;;;5028060;28;20229;-67
2023/07/13 09:45:02;;;;;;;25.50;5.63;;;28.10;49.40;;;;;;5046026;28;20223;-67
2023/07/13 09:47:30;;;;;;;40.17;6.70;;;28.20;49.50;;;;;;5029393;28;20205;-69
2023/07/13 09:49:59;;;;;;;36.33;6.93;;;28.20;49.50;;;;;;5040442;28;20203;-73
2023/07/13 09:52:39;;;;;;;24.20;5.47;;;28.10;49.50;;;;;;5028940;28;20291;-72
2023/07/13 09:55:25;;;;;;;25.03;5.27;;;28.10;49.60;;;;;;5046172;28;20207;-71
2023/07/13 09:57:52;;;;;;;43.10;7.00;;;28.20;49.60;;;;;;5047112;28;20238;-70
2023/07/13 10:00:25;;;;;;;26.63;5.57;;;28.10;49.60;;;;;;5047296;28;20192;-71
2023/07/13 10:03:04;;;;;;;39.27;6.77;;;28.20;49.60;;;;;;5043640;28;20208;-66
2023/07/13 10:05:39;;;;;;;29.33;5.83;;;28.20;49.60;;;;;;5041665;28;20207;-71
2023/07/13 10:08:18;;;;;;;26.50;5.37;;;28.20;49.60;;;;;;5030201;28;20196;-67
2023/07/13 10:10:45;;;;;;;49.83;7.77;;;28.20;49.60;;;;;;5027568;28;20258;-67
2023/07/13 10:13:31;;;;;;;21.47;4.87;;;28.30;49.70;;;;;;5037662;28;20669;-69
2023/07/13 10:15:59;;;;;;;52.17;7.83;;;28.20;49.60;;;;;;5042686;28;20231;-70
2023/07/13 10:18:27;;;;;;;20.90;4.93;;;28.30;49.60;;;;;;5043715;28;20228;-68
2023/07/13 10:21:01;;;;;;;26.93;5.37;;;28.30;49.60;;;;;;5050177;28;20208;-69
2023/07/13 10:23:33;;;;;;;20.57;5.23;;;28.20;49.60;;;;;;5033229;28;20212;-69
2023/07/13 10:26:00;;;;;;;29.80;6.00;;;28.30;49.60;;;;;;5044173;28;20215;-68
2023/07/13 10:28:32;;;;;;;27.10;5.47;;;28.30;49.70;;;;;;5035681;28;20216;-69
2023/07/13 10:31:02;;;;;;;20.17;5.03;;;28.30;49.70;;;;;;5031163;28;20292;-69
2023/07/13 10:33:29;;;;;;;24.37;5.10;;;28.30;49.70;;;;;;5044528;28;20285;-69
2023/07/13 10:36:13;;;;;;;26.43;5.60;;;28.30;49.70;;;;;;5047426;28;20196;-72
2023/07/13 10:38:43;;;;;;;26.40;5.53;;;28.30;50.50;;;;;;5048534;28;20232;-69
2023/07/13 10:41:15;;;;;;;50.93;7.60;;;28.30;50.00;;;;;;5038502;28;20200;-75
2023/07/13 10:43:45;;;;;;;25.37;5.27;;;28.40;50.10;;;;;;5050584;28;20196;-88
2023/07/13 10:46:15;;;;;;;33.33;6.53;;;28.40;50.10;;;;;;5050808;28;20196;-89
2023/07/13 10:48:45;;;;;;;22.30;5.00;;;28.50;50.20;;;;;;5050987;28;20200;-78
2023/07/13 10:51:15;;;;;;;33.27;5.93;;;28.60;50.30;;;;;;5049155;28;20207;-72
2023/07/13 10:53:43;;;;;;;26.53;5.37;;;28.60;50.20;;;;;;5040824;28;20716;-76
2023/07/13 10:56:30;;;;;;;22.83;5.13;;;28.80;50.30;;;;;;5041016;28;20204;-85
2023/07/13 10:59:12;;;;;;;32.37;6.03;;;28.80;50.30;;;;;;5050833;28;20323;-70
2023/07/13 11:01:52;;;;;;;29.13;5.73;;;28.90;50.40;;;;;;5050250;28;20211;-72
2023/07/13 11:04:21;;;;;;;31.07;5.83;;;29.00;50.30;;;;;;5033157;28;20649;-69
2023/07/13 11:06:51;;;;;;;21.97;5.27;;;29.10;50.30;;;;;;5041790;28;20204;-69
2023/07/13 11:09:38;;;;;;;25.00;5.20;;;29.20;50.50;;;;;;5050318;28;20204;-69
2023/07/13 11:12:14;;;;;;;21.33;4.77;;;29.20;50.80;;;;;;5047956;28;20749;-70
2023/07/13 11:15:02;;;;;;;24.83;5.67;;;29.30;50.90;;;;;;5062340;28;20194;-73
2023/07/13 11:17:38;;;;;;;22.83;5.17;;;29.50;51.00;;;;;;5048295;28;20200;-70
2023/07/13 11:20:20;;;;;;;19.37;4.60;;;29.60;50.80;;;;;;5048674;28;20195;-69
2023/07/13 11:22:50;;;;;;;24.57;5.57;;;29.80;50.60;;;;;;5045980;28;20246;-69
2023/07/13 11:25:30;;;;;;;29.97;5.60;;;30.00;50.50;;;;;;5047774;28;20212;-72
2023/07/13 11:28:18;;;;;;;32.97;5.87;;;30.10;50.40;;;;;;5029718;28;20900;-68
2023/07/13 11:30:48;;;;;;;23.67;5.10;;;30.20;50.30;;;;;;5044342;28;20206;-69
2023/07/13 11:33:19;;;;;;;27.23;5.53;;;30.30;50.20;;;;;;5046594;28;20207;-69
2023/07/13 11:35:53;;;;;;;23.60;5.33;;;30.40;50.10;;;;;;5038652;28;20196;-83
2023/07/13 11:38:22;;;;;;;33.00;6.20;;;30.50;50.00;;;;;;5049163;28;20231;-74
2023/07/13 11:40:54;;;;;;;23.10;5.10;;;30.60;49.90;;;;;;5032255;28;20666;-72
2023/07/13 11:43:24;;;;;;;27.17;5.83;;;30.70;49.70;;;;;;5030245;28;20189;-82
2023/07/13 11:45:51;;;;;;;23.17;5.17;;;30.70;49.60;;;;;;5030026;28;20287;-78
2023/07/13 11:48:23;;;;;;;31.00;5.87;;;30.80;49.70;;;;;;5041181;28;20212;-79
2023/07/13 11:50:54;;;;;;;23.33;5.07;;;30.90;49.70;;;;;;5049842;28;20215;-82
2023/07/13 11:53:21;;;;;;;32.17;6.03;;;30.90;49.60;;;;;;5029413;28;20195;-69
2023/07/13 11:55:50;;;;;;;27.33;5.38;;;31.00;49.60;;;;;;5028155;28;20208;-74
2023/07/13 11:58:23;;;;;;;22.27;5.27;;;31.00;49.50;;;;;;5029172;28;20240;-71
2023/07/13 12:00:51;;;;;;;34.30;6.33;;;31.10;49.70;;;;;;5030840;28;20200;-70
2023/07/13 12:03:24;;;;;;;41.53;6.77;;;31.20;49.70;;;;;;5038594;28;20204;-69
2023/07/13 12:05:59;;;;;;;23.80;5.43;;;31.30;49.60;;;;;;5040622;28;20330;-76
2023/07/13 12:08:26;;;;;;;33.13;6.07;;;31.40;49.50;;;;;;5048501;28;20495;-68
2023/07/13 12:11:01;;;;;;;23.80;5.23;;;31.40;49.30;;;;;;5047843;28;20222;-73
2023/07/13 12:13:29;;;;;;;26.97;5.73;;;31.50;49.00;;;;;;5045993;28;20196;-75
2023/07/13 12:15:58;;;;;;;36.38;6.47;;;31.60;48.90;;;;;;5044697;28;20254;-69
2023/07/13 12:18:30;;;;;;;20.98;5.07;;;31.70;48.70;;;;;;5028777;28;20290;-72
2023/07/13 12:20:59;;;;;;;24.00;5.28;;;31.70;48.60;;;;;;5028587;28;20205;-69
2023/07/13 12:23:31;;;;;;;48.10;7.47;;;31.70;48.40;;;;;;5027946;28;20200;-69
2023/07/13 12:26:02;;;;;;;19.08;4.88;;;31.70;48.30;;;;;;5060125;28;20205;-70
2023/07/13 12:28:34;;;;;;;25.87;5.43;;;31.70;48.30;;;;;;5037474;28;20208;-72
2023/07/13 12:31:03;;;;;;;22.87;5.07;;;31.60;48.30;;;;;;5042342;28;20204;-68
2023/07/13 12:33:32;;;;;;;24.90;5.00;;;31.60;48.50;;;;;;5047767;28;20192;-79
2023/07/13 12:36:02;;;;;;;20.33;5.30;;;31.60;48.60;;;;;;5047031;28;20204;-69
2023/07/13 12:38:31;;;;;;;23.43;5.13;;;31.60;48.60;;;;;;5047047;28;20228;-73
2023/07/13 12:40:59;;;;;;;20.92;4.72;;;31.60;48.60;;;;;;5036847;28;20201;-68
2023/07/13 12:43:27;;;;;;;37.83;6.47;;;31.60;48.60;;;;;;5034778;28;20204;-69
2023/07/13 12:46:00;;;;;;;26.50;5.47;;;31.60;48.60;;;;;;5030079;28;20219;-68